Time;durP1;ratioP1;P1;durP2;ratioP2;P2;SDS_P1;SDS_P2;PMS_P1;PMS_P2;Temp;Humidity;BMP_temperature;BMP_pressure;BME280_temperature;BME280_humidity;BME280_pressure;Samples;Min_cycle;Max_cycle;Signal;HPM_P1;HPM_P2
2022/08/25 00:02:10;;;;;;;22.13;5.80;;;17.10;99.90;;;;;;4434514;28;658531;-70
2022/08/25 00:04:57;;;;;;;24.23;5.80;;;17.10;99.90;;;;;;4413813;28;659153;-70
2022/08/25 00:07:44;;;;;;;24.10;5.43;;;17.10;99.90;;;;;;4437894;28;657889;-70
2022/08/25 00:10:33;;;;;;;31.03;6.10;;;17.10;99.90;;;;;;4414064;28;658280;-70
2022/08/25 00:13:20;;;;;;;23.23;5.10;;;17.10;99.90;;;;;;4412282;28;657442;-70
2022/08/25 00:16:07;;;;;;;17.17;4.77;;;17.10;99.90;;;;;;4435617;28;658450;-70
2022/08/25 00:18:57;;;;;;;21.43;4.87;;;17.10;99.90;;;;;;4428286;28;657563;-70
2022/08/25 00:21:44;;;;;;;20.17;5.00;;;17.10;99.90;;;;;;4432467;28;658207;-70
2022/08/25 00:24:31;;;;;;;18.30;4.90;;;17.10;99.90;;;;;;4409415;28;658333;-69
2022/08/25 00:27:20;;;;;;;17.83;4.83;;;17.10;99.90;;;;;;4439569;28;658243;-70
2022/08/25 00:30:09;;;;;;;17.97;4.77;;;17.00;99.90;;;;;;4415749;28;657317;-70
2022/08/25 00:32:56;;;;;;;18.90;4.80;;;16.90;99.90;;;;;;4410959;28;657813;-69
2022/08/25 00:35:43;;;;;;;21.37;5.40;;;16.90;99.90;;;;;;4433480;28;658321;-70
2022/08/25 00:38:30;;;;;;;15.43;4.93;;;17.00;99.90;;;;;;4413250;28;657409;-70
2022/08/25 00:41:19;;;;;;;16.73;5.27;;;16.90;99.90;;;;;;4438659;28;657910;-69
2022/08/25 00:44:09;;;;;;;21.07;5.07;;;17.00;99.90;;;;;;4409487;28;658645;-70
2022/08/25 00:46:57;;;;;;;25.13;4.83;;;16.90;99.90;;;;;;4415396;28;658431;-69
2022/08/25 00:49:46;;;;;;;24.97;5.03;;;16.90;99.90;;;;;;4434706;28;657560;-70
2022/08/25 00:52:35;;;;;;;22.33;5.13;;;16.80;99.90;;;;;;4407695;28;658151;-69
2022/08/25 00:55:23;;;;;;;23.43;5.20;;;16.80;99.90;;;;;;4407674;28;658869;-70
2022/08/25 00:58:13;;;;;;;17.77;5.03;;;16.80;99.90;;;;;;4414718;28;658023;-70
2022/08/25 01:01:02;;;;;;;18.10;4.83;;;16.80;99.90;;;;;;4412062;28;657716;-70
2022/08/25 01:03:49;;;;;;;23.57;5.40;;;16.80;99.90;;;;;;4434740;28;658185;-70
2022/08/25 01:06:38;;;;;;;25.43;4.40;;;16.80;99.90;;;;;;4410682;28;658364;-70
2022/08/25 01:09:25;;;;;;;18.43;5.03;;;16.80;99.90;;;;;;4422937;28;657413;-70
2022/08/25 01:12:12;;;;;;;16.30;4.70;;;16.90;99.90;;;;;;4435007;28;658092;-70
2022/08/25 01:14:59;;;;;;;27.10;5.47;;;16.90;99.90;;;;;;4434187;28;657178;-69
2022/08/25 01:17:49;;;;;;;26.67;5.40;;;16.80;99.90;;;;;;4413629;28;657694;-70
2022/08/25 01:20:36;;;;;;;21.03;5.33;;;16.80;99.90;;;;;;4410973;28;657484;-69
2022/08/25 01:23:25;;;;;;;33.80;5.40;;;16.90;99.90;;;;;;4435803;28;657557;-70
2022/08/25 01:26:13;;;;;;;21.00;4.70;;;16.90;99.90;;;;;;4408539;28;658191;-70
2022/08/25 01:32:08;;;;;;;20.90;5.13;;;17.10;99.90;;;;;;4391656;28;658335;-70
2022/08/25 01:34:55;;;;;;;26.37;6.00;;;17.00;99.90;;;;;;4423224;28;657716;-70
2022/08/25 01:37:42;;;;;;;22.60;5.10;;;17.00;99.90;;;;;;4438518;28;657684;-70
2022/08/25 01:40:31;;;;;;;23.40;5.50;;;16.90;99.90;;;;;;4430355;28;657786;-69
2022/08/25 01:43:25;;;;;;;26.07;5.13;;;17.00;99.90;;;;;;4410241;28;659291;-70
2022/08/25 01:46:13;;;;;;;27.40;5.77;;;17.10;99.90;;;;;;4387930;28;658184;-70
2022/08/25 01:49:00;;;;;;;21.23;4.97;;;17.10;99.90;;;;;;4423843;28;657863;-70
2022/08/25 01:51:51;;;;;;;20.67;5.63;;;17.00;99.90;;;;;;4434233;28;658343;-70
2022/08/25 01:54:38;;;;;;;28.53;5.43;;;17.00;99.90;;;;;;4409503;28;658229;-70
2022/08/25 01:57:30;;;;;;;20.07;5.20;;;16.90;99.90;;;;;;4413875;28;657480;-70
2022/08/25 02:00:17;;;;;;;24.33;5.37;;;16.90;99.90;;;;;;4412859;28;658839;-69
2022/08/25 02:03:05;;;;;;;25.00;5.10;;;17.00;99.90;;;;;;4432669;28;657394;-69
2022/08/25 02:05:53;;;;;;;22.07;5.17;;;16.90;99.90;;;;;;4438022;28;658597;-70
2022/08/25 02:08:41;;;;;;;35.90;5.30;;;16.90;99.90;;;;;;4411438;28;658078;-70
2022/08/25 02:11:28;;;;;;;26.77;5.60;;;16.80;99.90;;;;;;4433373;28;658818;-70
2022/08/25 02:14:17;;;;;;;28.27;5.83;;;16.80;99.90;;;;;;4412974;28;657233;-70
2022/08/25 02:17:04;;;;;;;30.87;5.63;;;16.80;99.90;;;;;;4435951;28;657800;-70
2022/08/25 02:19:51;;;;;;;26.63;5.28;;;16.90;99.90;;;;;;4410187;28;657530;-70
2022/08/25 02:22:38;;;;;;;21.13;5.77;;;16.90;99.90;;;;;;4429615;28;658915;-70
2022/08/25 02:25:25;;;;;;;26.10;5.87;;;16.90;99.90;;;;;;4401887;28;657867;-70
2022/08/25 02:28:13;;;;;;;25.87;6.67;;;16.90;99.90;;;;;;4433751;28;658628;-69
2022/08/25 02:31:01;;;;;;;24.43;6.10;;;16.80;99.90;;;;;;4422306;28;657928;-69
2022/08/25 02:33:49;;;;;;;21.43;5.60;;;16.80;99.90;;;;;;4432047;28;658220;-69
2022/08/25 02:36:36;;;;;;;24.30;5.33;;;16.90;99.90;;;;;;4416430;28;657700;-69
2022/08/25 02:39:23;;;;;;;22.07;5.97;;;16.90;99.90;;;;;;4431169;28;658644;-70
2022/08/25 02:42:10;;;;;;;29.70;6.13;;;16.80;99.90;;;;;;4413218;28;657730;-70
2022/08/25 02:44:57;;;;;;;30.57;6.13;;;16.80;99.90;;;;;;4436461;28;657661;-70
2022/08/25 02:47:46;;;;;;;27.27;6.00;;;16.80;99.90;;;;;;4434325;28;657724;-70
2022/08/25 02:50:33;;;;;;;25.20;6.70;;;16.80;99.90;;;;;;4410917;28;658704;-69
2022/08/25 02:53:20;;;;;;;22.67;6.73;;;16.80;99.90;;;;;;4415652;28;657579;-70
2022/08/25 02:56:08;;;;;;;26.03;6.67;;;16.80;99.90;;;;;;4438263;28;658908;-70
2022/08/25 02:58:55;;;;;;;24.67;6.47;;;16.90;99.90;;;;;;4410092;28;658269;-70
2022/08/25 03:01:42;;;;;;;21.93;6.43;;;16.90;99.90;;;;;;4432711;28;658693;-70
2022/08/25 03:04:31;;;;;;;21.60;5.77;;;16.90;99.90;;;;;;4428616;28;657600;-70
2022/08/25 03:07:19;;;;;;;21.47;5.93;;;16.90;99.90;;;;;;4428185;28;657588;-70
2022/08/25 03:10:08;;;;;;;22.63;6.70;;;16.90;99.90;;;;;;4412432;28;657681;-69
2022/08/25 03:12:55;;;;;;;24.00;6.43;;;16.90;99.90;;;;;;4422446;28;657996;-69
2022/08/25 03:15:42;;;;;;;32.93;6.80;;;16.90;99.90;;;;;;4434241;28;658375;-70
2022/08/25 03:18:29;;;;;;;29.20;7.00;;;16.80;99.90;;;;;;4432072;28;658331;-70
2022/08/25 03:21:18;;;;;;;24.87;7.70;;;16.80;99.90;;;;;;4410654;28;658118;-70
2022/08/25 03:24:05;;;;;;;19.67;6.67;;;16.90;99.90;;;;;;4412206;28;657637;-70
2022/08/25 03:26:54;;;;;;;28.53;7.20;;;16.90;99.90;;;;;;4428800;28;659342;-70
2022/08/25 03:29:41;;;;;;;28.63;6.57;;;17.00;99.90;;;;;;4413560;28;657397;-70
2022/08/25 03:32:29;;;;;;;27.33;6.00;;;17.00;99.90;;;;;;4432645;28;658096;-70
2022/08/25 03:35:17;;;;;;;21.97;6.10;;;17.00;99.90;;;;;;4405310;28;658056;-70
2022/08/25 03:38:06;;;;;;;27.77;6.10;;;16.90;99.90;;;;;;4434188;28;658340;-70
2022/08/25 03:40:53;;;;;;;27.47;6.80;;;16.90;99.90;;;;;;4410692;28;658172;-70
2022/08/25 03:43:41;;;;;;;22.13;7.10;;;16.80;99.90;;;;;;4417357;28;658348;-70
2022/08/25 03:46:29;;;;;;;28.77;6.73;;;16.80;99.90;;;;;;4430843;28;658034;-69
2022/08/25 03:49:22;;;;;;;22.57;7.17;;;16.90;99.90;;;;;;4411413;28;657381;-69
2022/08/25 03:52:09;;;;;;;22.90;7.07;;;16.80;99.90;;;;;;4412130;28;658410;-70
2022/08/25 03:54:58;;;;;;;27.17;7.07;;;16.90;99.90;;;;;;4407584;28;658122;-70
2022/08/25 03:57:45;;;;;;;32.10;7.40;;;16.90;99.90;;;;;;4421489;28;657915;-70
2022/08/25 04:00:32;;;;;;;29.80;6.70;;;16.90;99.90;;;;;;4438655;28;657608;-70
2022/08/25 04:03:19;;;;;;;26.63;7.20;;;16.90;99.90;;;;;;4431882;28;657792;-70
2022/08/25 04:06:07;;;;;;;23.97;5.70;;;16.90;99.90;;;;;;4407981;28;658014;-70
2022/08/25 04:08:54;;;;;;;21.90;5.83;;;16.90;99.90;;;;;;4427323;28;657525;-70
2022/08/25 04:11:43;;;;;;;23.60;6.47;;;17.00;99.90;;;;;;4407789;28;657774;-70
2022/08/25 04:14:30;;;;;;;22.30;6.37;;;17.00;99.90;;;;;;4422018;28;657467;-70
2022/08/25 04:17:17;;;;;;;23.17;6.37;;;17.00;99.90;;;;;;4433397;28;656951;-70
2022/08/25 04:20:06;;;;;;;37.53;7.03;;;17.10;99.90;;;;;;4429818;28;657375;-70
2022/08/25 04:22:54;;;;;;;26.90;6.80;;;17.10;99.90;;;;;;4401958;28;657869;-70
2022/08/25 04:25:42;;;;;;;33.20;7.47;;;17.10;99.90;;;;;;4408869;28;657603;-70
2022/08/25 04:28:30;;;;;;;31.87;7.13;;;17.10;99.90;;;;;;4431072;28;657459;-70
2022/08/25 04:31:18;;;;;;;37.70;6.83;;;17.20;99.90;;;;;;4414780;28;659177;-69
2022/08/25 04:34:05;;;;;;;28.50;7.70;;;17.20;99.90;;;;;;4415203;28;658058;-70
2022/08/25 04:36:53;;;;;;;28.93;7.37;;;17.40;99.90;;;;;;4436562;28;658783;-70
2022/08/25 04:39:40;;;;;;;32.13;7.93;;;17.50;99.90;;;;;;4425434;28;658249;-70
2022/08/25 04:42:27;;;;;;;25.93;6.70;;;17.70;99.90;;;;;;4432085;28;658801;-69
2022/08/25 04:45:17;;;;;;;30.53;7.47;;;17.80;99.90;;;;;;4434186;28;657567;-70
2022/08/25 04:48:04;;;;;;;21.87;7.13;;;17.90;99.90;;;;;;4431716;28;657839;-69
2022/08/25 04:50:51;;;;;;;23.43;6.43;;;17.90;99.90;;;;;;4409444;28;658525;-70
2022/08/25 04:53:38;;;;;;;26.13;7.07;;;18.00;99.90;;;;;;4430050;28;658968;-70
2022/08/25 04:56:26;;;;;;;26.03;7.00;;;18.00;99.90;;;;;;4416420;28;657623;-70
2022/08/25 04:59:13;;;;;;;29.47;7.27;;;18.10;99.90;;;;;;4440215;28;658596;-70
2022/08/25 05:02:03;;;;;;;29.57;6.70;;;18.20;99.90;;;;;;4418554;28;657985;-70
2022/08/25 05:04:51;;;;;;;30.30;6.97;;;18.30;99.90;;;;;;4420420;28;658078;-69
2022/08/25 05:07:38;;;;;;;34.20;7.23;;;18.30;99.90;;;;;;4434856;28;658706;-70
2022/08/25 05:10:25;;;;;;;31.07;7.23;;;18.30;99.90;;;;;;4418788;28;657228;-70
2022/08/25 05:13:12;;;;;;;26.77;7.37;;;18.50;99.90;;;;;;4438446;28;658610;-69
2022/08/25 05:16:00;;;;;;;33.20;7.30;;;18.60;99.90;;;;;;4434681;28;657308;-70
2022/08/25 05:18:48;;;;;;;23.03;6.93;;;18.60;99.90;;;;;;4417446;28;658219;-69
2022/08/25 05:21:35;;;;;;;34.03;6.77;;;18.60;99.90;;;;;;4416978;28;657471;-70
2022/08/25 05:24:23;;;;;;;29.97;7.17;;;18.80;99.90;;;;;;4437910;28;659184;-69
2022/08/25 05:27:10;;;;;;;33.53;7.20;;;19.00;99.90;;;;;;4421908;28;657738;-70
2022/08/25 05:29:57;;;;;;;26.95;6.57;;;19.20;99.90;;;;;;4439273;28;657864;-70
2022/08/25 05:32:45;;;;;;;25.10;6.77;;;19.30;99.90;;;;;;4436605;28;657381;-70
2022/08/25 05:35:34;;;;;;;26.03;6.57;;;19.40;99.90;;;;;;4440510;28;657509;-70
2022/08/25 05:38:21;;;;;;;25.17;6.80;;;19.50;99.90;;;;;;4410497;28;657388;-70
2022/08/25 05:41:10;;;;;;;25.23;6.47;;;19.80;99.90;;;;;;4439864;28;658180;-70
2022/08/25 05:43:57;;;;;;;21.40;6.60;;;20.00;99.90;;;;;;4408650;28;658345;-69
2022/08/25 05:46:46;;;;;;;30.10;6.77;;;20.30;99.90;;;;;;4438364;28;657260;-69
2022/08/25 05:49:33;;;;;;;40.57;7.00;;;20.50;99.90;;;;;;4412930;28;657875;-69
2022/08/25 05:52:21;;;;;;;42.67;7.17;;;20.80;99.90;;;;;;4423619;28;658563;-69
2022/08/25 05:55:09;;;;;;;36.00;6.70;;;21.00;99.90;;;;;;4436058;28;658208;-68
2022/08/25 05:57:56;;;;;;;29.83;6.50;;;21.20;99.90;;;;;;4415170;28;657762;-69
2022/08/25 06:00:43;;;;;;;41.87;7.57;;;21.40;99.90;;;;;;4435153;28;658245;-69
2022/08/25 06:03:29;;;;;;;45.00;7.17;;;21.40;99.90;;;;;;4411197;28;658307;-68
2022/08/25 06:06:16;;;;;;;36.97;6.67;;;21.50;99.90;;;;;;4440017;28;657501;-69
2022/08/25 06:09:07;;;;;;;40.73;7.27;;;21.60;99.90;;;;;;4431901;28;657917;-69
2022/08/25 06:11:54;;;;;;;34.17;7.07;;;21.70;99.90;;;;;;4415324;28;658113;-69
2022/08/25 06:14:41;;;;;;;48.27;7.50;;;21.80;99.90;;;;;;4419234;28;658380;-69
2022/08/25 06:17:28;;;;;;;42.33;7.00;;;21.90;99.90;;;;;;4435515;28;659165;-69
2022/08/25 06:20:17;;;;;;;43.03;6.67;;;21.90;99.90;;;;;;4421920;28;657317;-69
2022/08/25 06:23:04;;;;;;;36.90;6.83;;;21.90;99.90;;;;;;4431963;28;657272;-69
2022/08/25 06:25:53;;;;;;;42.30;7.10;;;22.10;99.90;;;;;;4415671;28;657759;-69
2022/08/25 06:28:40;;;;;;;41.83;7.17;;;22.20;99.90;;;;;;4418589;28;657339;-69
2022/08/25 06:31:27;;;;;;;38.90;6.60;;;22.40;99.90;;;;;;4430781;28;658143;-69
2022/08/25 06:34:14;;;;;;;39.07;6.53;;;22.50;99.90;;;;;;4433766;28;657628;-69
2022/08/25 06:37:01;;;;;;;49.03;6.10;;;22.70;99.90;;;;;;4411558;28;659344;-69
2022/08/25 06:39:49;;;;;;;48.67;6.60;;;22.80;99.90;;;;;;4433405;28;658133;-69
2022/08/25 06:42:37;;;;;;;44.80;6.60;;;22.80;99.90;;;;;;4412461;28;657529;-69
2022/08/25 06:45:24;;;;;;;47.50;7.10;;;23.00;99.90;;;;;;4438682;28;657667;-69
2022/08/25 06:48:11;;;;;;;41.23;6.33;;;23.00;99.90;;;;;;4409233;28;657852;-69
2022/08/25 06:50:58;;;;;;;44.07;6.47;;;23.10;99.90;;;;;;4427718;28;657531;-69
2022/08/25 06:53:46;;;;;;;42.10;6.63;;;23.20;99.90;;;;;;4421558;28;657654;-69
2022/08/25 06:56:33;;;;;;;44.57;7.33;;;23.30;99.90;;;;;;4440155;28;658625;-69
2022/08/25 06:59:22;;;;;;;43.03;6.50;;;23.20;99.90;;;;;;4422803;28;657600;-69
2022/08/25 07:02:09;;;;;;;48.17;7.00;;;23.20;99.90;;;;;;4437685;28;657577;-69
2022/08/25 07:04:56;;;;;;;42.03;6.63;;;23.20;99.90;;;;;;4416084;28;657791;-70
2022/08/25 07:07:45;;;;;;;36.50;6.30;;;23.50;99.90;;;;;;4435276;28;658590;-69
2022/08/25 07:10:32;;;;;;;38.13;6.70;;;23.60;99.90;;;;;;4407605;28;658727;-69
2022/08/25 07:13:19;;;;;;;45.53;6.77;;;23.60;99.90;;;;;;4431344;28;658005;-70
2022/08/25 07:16:10;;;;;;;45.83;7.00;;;23.80;99.90;;;;;;4413473;28;658946;-70
2022/08/25 07:18:57;;;;;;;34.70;5.87;;;24.00;99.90;;;;;;4408419;28;658379;-70
2022/08/25 07:21:45;;;;;;;33.30;6.80;;;24.20;99.90;;;;;;4435791;28;657655;-69
2022/08/25 07:24:32;;;;;;;44.42;6.32;;;24.40;99.90;;;;;;4436035;28;658008;-69
2022/08/25 07:27:21;;;;;;;44.15;7.03;;;24.60;99.90;;;;;;4428446;28;657238;-70
2022/08/25 07:30:09;;;;;;;44.83;7.38;;;24.40;99.90;;;;;;4445097;28;657949;-69
2022/08/25 07:32:57;;;;;;;44.28;7.10;;;24.50;99.90;;;;;;4411928;28;657735;-69
2022/08/25 07:35:45;;;;;;;35.97;6.00;;;24.60;99.90;;;;;;4427820;28;657546;-69
2022/08/25 07:38:32;;;;;;;49.58;6.45;;;24.60;99.90;;;;;;4425015;28;657659;-69
2022/08/25 07:41:19;;;;;;;48.10;6.72;;;24.80;99.90;;;;;;4436497;28;658513;-70
2022/08/25 07:44:07;;;;;;;45.75;6.30;;;25.10;99.90;;;;;;4413745;28;658909;-70
2022/08/25 07:46:54;;;;;;;38.88;5.38;;;25.50;99.90;;;;;;4429610;28;658280;-70
2022/08/25 07:49:43;;;;;;;39.75;6.53;;;25.70;99.90;;;;;;4412183;28;657908;-70
2022/08/25 07:52:30;;;;;;;43.17;6.43;;;26.00;99.90;;;;;;4423994;28;658266;-69
2022/08/25 07:55:17;;;;;;;33.38;6.15;;;26.00;99.90;;;;;;4441235;28;657262;-70
2022/08/25 07:58:05;;;;;;;35.22;6.72;;;25.50;99.90;;;;;;4430816;28;658258;-70
2022/08/25 08:00:52;;;;;;;34.78;6.32;;;25.90;99.90;;;;;;4411536;28;658020;-70
2022/08/25 08:03:40;;;;;;;36.95;6.07;;;26.00;99.90;;;;;;4430778;28;657522;-70
2022/08/25 08:06:28;;;;;;;37.92;5.95;;;26.30;99.90;;;;;;4408777;28;658453;-70
2022/08/25 08:09:16;;;;;;;42.88;6.43;;;26.30;99.90;;;;;;4408860;28;658473;-70
2022/08/25 08:12:04;;;;;;;39.47;6.22;;;26.20;99.90;;;;;;4432547;28;659455;-70
2022/08/25 08:14:52;;;;;;;37.75;6.63;;;26.60;99.90;;;;;;4411911;28;657531;-70
2022/08/25 08:17:39;;;;;;;38.80;5.95;;;26.90;99.90;;;;;;4430074;28;657587;-70
2022/08/25 08:20:27;;;;;;;32.53;6.13;;;26.80;99.90;;;;;;4417309;28;657669;-70
2022/08/25 08:23:16;;;;;;;57.70;6.70;;;27.20;99.90;;;;;;4431885;28;657206;-70
2022/08/25 08:26:03;;;;;;;37.00;6.55;;;27.30;99.90;;;;;;4408349;28;658422;-70
2022/08/25 08:28:50;;;;;;;49.13;7.07;;;27.40;99.90;;;;;;4418538;28;657936;-70
2022/08/25 08:31:38;;;;;;;35.60;6.10;;;27.70;99.90;;;;;;4443040;28;659005;-70
2022/08/25 08:34:25;;;;;;;35.22;6.22;;;27.40;99.90;;;;;;4429428;28;657587;-70
2022/08/25 08:37:12;;;;;;;44.60;6.93;;;27.50;99.90;;;;;;4437404;28;657701;-70
2022/08/25 08:40:01;;;;;;;45.83;6.07;;;27.90;99.90;;;;;;4434640;28;658041;-71
2022/08/25 08:42:53;;;;;;;47.88;7.38;;;28.00;99.90;;;;;;4409574;28;658371;-71
2022/08/25 08:45:42;;;;;;;37.13;6.20;;;27.80;99.90;;;;;;4391934;28;658583;-71
2022/08/25 08:48:40;;;;;;;38.95;6.25;;;28.30;99.90;;;;;;4433696;28;657657;-70
2022/08/25 08:51:30;;;;;;;47.03;6.32;;;28.10;99.90;;;;;;4387303;28;658382;-71
2022/08/25 08:54:19;;;;;;;40.67;6.03;;;28.00;99.90;;;;;;4406247;28;658452;-71
2022/08/25 08:57:12;;;;;;;44.08;6.57;;;28.10;99.90;;;;;;4416223;28;657831;-70
2022/08/25 09:00:00;;;;;;;48.03;6.60;;;28.30;99.90;;;;;;4407547;28;658989;-70
2022/08/25 09:02:51;;;;;;;54.50;6.43;;;28.50;99.90;;;;;;4417789;28;658379;-70
2022/08/25 09:05:42;;;;;;;35.83;6.18;;;29.00;99.90;;;;;;4409479;28;658607;-70
2022/08/25 09:08:29;;;;;;;38.78;5.90;;;29.40;99.90;;;;;;4410257;28;658192;-70
2022/08/25 09:11:21;;;;;;;45.60;6.68;;;29.60;99.90;;;;;;4414641;28;657830;-70
2022/08/25 09:14:13;;;;;;;42.83;6.20;;;29.60;99.90;;;;;;4410290;28;658507;-70
2022/08/25 09:17:04;;;;;;;36.93;6.77;;;29.80;99.90;;;;;;4392641;28;657579;-70
2022/08/25 09:20:07;;;;;;;42.85;5.65;;;30.00;99.90;;;;;;4409675;28;657969;-70
2022/08/25 09:22:57;;;;;;;46.10;6.20;;;30.20;99.90;;;;;;4407514;28;657750;-69
2022/08/25 09:25:48;;;;;;;35.85;5.93;;;30.10;99.90;;;;;;4410296;28;657153;-70
2022/08/25 09:28:38;;;;;;;45.87;6.40;;;29.90;99.90;;;;;;4391883;28;658335;-70
2022/08/25 09:31:30;;;;;;;39.50;6.50;;;29.90;99.90;;;;;;4412013;28;657598;-70
2022/08/25 09:34:18;;;;;;;39.92;6.38;;;29.70;99.90;;;;;;4412876;28;658302;-70
2022/08/25 09:37:05;;;;;;;33.40;6.43;;;29.50;99.90;;;;;;4410440;28;658068;-70
2022/08/25 09:39:53;;;;;;;34.72;6.50;;;29.70;99.90;;;;;;4430048;28;658974;-70
2022/08/25 09:42:47;;;;;;;31.85;6.32;;;28.60;99.90;;;;;;4424458;28;657646;-70
2022/08/25 09:45:40;;;;;;;35.15;6.13;;;29.40;99.90;;;;;;4417325;28;657814;-70
2022/08/25 09:48:36;;;;;;;41.83;6.63;;;30.10;99.90;;;;;;4383744;28;658758;-70
2022/08/25 09:51:25;;;;;;;35.35;6.50;;;30.50;99.90;;;;;;4413885;28;657474;-70
2022/08/25 09:54:18;;;;;;;34.25;6.03;;;30.20;99.90;;;;;;4413420;28;657981;-70
2022/08/25 09:57:06;;;;;;;37.50;6.20;;;29.40;99.90;;;;;;4411334;28;657525;-69
2022/08/25 09:59:53;;;;;;;38.97;5.90;;;29.80;99.90;;;;;;4434927;28;658279;-70
2022/08/25 10:02:41;;;;;;;43.50;6.20;;;30.10;99.90;;;;;;4423026;28;657943;-70
2022/08/25 10:05:33;;;;;;;30.03;6.27;;;29.70;99.90;;;;;;4435338;28;658615;-70
2022/08/25 10:08:26;;;;;;;27.52;6.10;;;30.10;99.90;;;;;;4392629;28;657982;-69
2022/08/25 10:11:15;;;;;;;42.37;6.77;;;29.50;99.90;;;;;;4406263;28;657833;-70
2022/08/25 10:14:04;;;;;;;34.10;6.17;;;29.70;99.90;;;;;;4425136;28;658780;-70
2022/08/25 10:16:53;;;;;;;45.67;6.20;;;29.50;99.90;;;;;;4412667;28;657564;-70
2022/08/25 10:19:40;;;;;;;35.13;6.97;;;29.70;99.90;;;;;;4411971;28;658088;-70
2022/08/25 10:22:31;;;;;;;39.72;6.88;;;30.00;99.90;;;;;;4431535;28;658329;-70
2022/08/25 10:25:21;;;;;;;37.67;5.90;;;30.50;99.90;;;;;;4410014;28;658471;-70
2022/08/25 10:28:11;;;;;;;26.10;5.82;;;31.10;99.90;;;;;;4405194;28;658150;-70
2022/08/25 10:31:02;;;;;;;38.63;6.68;;;31.60;99.90;;;;;;4404558;28;658044;-70
2022/08/25 10:33:58;;;;;;;40.33;6.97;;;31.20;99.90;;;;;;4412848;28;657368;-70
2022/08/25 10:36:51;;;;;;;32.72;6.30;;;30.30;99.90;;;;;;4406677;28;658238;-70
2022/08/25 10:39:42;;;;;;;31.50;5.78;;;30.90;99.90;;;;;;4413714;28;657899;-70
2022/08/25 10:42:33;;;;;;;40.60;6.37;;;30.00;99.90;;;;;;4407597;28;657460;-71
2022/08/25 10:48:36;;;;;;;31.27;6.17;;;30.80;99.90;;;;;;4389442;28;658559;-70
2022/08/25 10:51:33;;;;;;;32.47;6.17;;;31.00;99.90;;;;;;4410605;28;658888;-70
2022/08/25 10:54:27;;;;;;;31.95;6.22;;;30.90;99.90;;;;;;4399881;28;657621;-70
2022/08/25 10:57:19;;;;;;;37.85;5.60;;;31.30;99.90;;;;;;4416834;28;657424;-70
2022/08/25 11:00:08;;;;;;;35.80;6.13;;;31.60;99.90;;;;;;4412609;28;657954;-70
2022/08/25 11:03:22;;;;;;;45.55;6.72;;;31.70;99.90;;;;;;4422845;28;657675;-70
2022/08/25 11:06:12;;;;;;;38.77;5.90;;;32.10;99.90;;;;;;4406130;28;657959;-70
2022/08/25 11:09:00;;;;;;;43.42;6.00;;;31.80;99.90;;;;;;4406434;28;657325;-70
2022/08/25 11:11:50;;;;;;;45.13;6.45;;;31.70;97.40;;;;;;4416099;28;657660;-71
2022/08/25 11:14:40;;;;;;;30.35;5.35;;;31.90;99.90;;;;;;4410893;28;658503;-71
2022/08/25 11:17:28;;;;;;;36.53;5.65;;;32.20;97.80;;;;;;4410073;28;658907;-71
2022/08/25 11:20:17;;;;;;;22.38;5.05;;;31.80;91.10;;;;;;4409343;28;657409;-71
2022/08/25 11:23:08;;;;;;;29.50;5.15;;;32.00;92.80;;;;;;4428346;28;657160;-71
2022/08/25 11:25:58;;;;;;;32.27;5.03;;;32.60;90.00;;;;;;4389899;28;658102;-72
2022/08/25 11:28:51;;;;;;;33.83;5.55;;;32.90;84.40;;;;;;4417400;28;658172;-71
2022/08/25 11:31:42;;;;;;;47.40;6.38;;;32.70;83.70;;;;;;4410535;28;658210;-72
2022/08/25 11:34:31;;;;;;;40.25;5.25;;;33.10;86.60;;;;;;4411031;28;658360;-72
2022/08/25 11:37:21;;;;;;;42.15;5.70;;;32.90;85.80;;;;;;4411829;28;658121;-72
2022/08/25 11:40:31;;;;;;;40.07;6.30;;;32.90;76.00;;;;;;4410263;28;658685;-72
2022/08/25 11:43:29;;;;;;;26.27;5.05;;;33.10;84.50;;;;;;4407791;28;658310;-72
2022/08/25 11:46:28;;;;;;;37.95;5.22;;;33.30;83.90;;;;;;4387927;28;657695;-72
2022/08/25 11:49:36;;;;;;;27.80;5.43;;;32.70;79.70;;;;;;4401263;28;657766;-71
2022/08/25 11:52:52;;;;;;;26.25;5.38;;;32.90;77.50;;;;;;4411840;28;658253;-71
2022/08/25 11:55:48;;;;;;;27.67;5.23;;;32.80;74.10;;;;;;4407394;28;658044;-72
2022/08/25 11:58:41;;;;;;;36.75;5.82;;;32.90;71.30;;;;;;4394801;28;657211;-72
2022/08/25 12:02:07;;;;;;;41.08;5.28;;;33.20;68.70;;;;;;4407729;28;658897;-72
2022/08/25 12:04:56;;;;;;;35.03;6.10;;;33.30;68.90;;;;;;4404306;28;657634;-72
2022/08/25 12:11:09;;;;;;;36.70;5.32;;;33.40;70.40;;;;;;4409866;28;658074;-71
2022/08/25 12:13:56;;;;;;;31.00;5.77;;;33.30;67.90;;;;;;4412627;28;657499;-70
2022/08/25 12:16:45;;;;;;;32.38;5.80;;;33.20;66.10;;;;;;4433843;28;658102;-71
2022/08/25 12:19:49;;;;;;;37.42;5.70;;;33.40;64.50;;;;;;4412291;28;658190;-72
2022/08/25 12:22:57;;;;;;;37.00;5.40;;;33.30;65.50;;;;;;4412575;28;657360;-71
2022/08/25 12:25:51;;;;;;;29.17;5.53;;;33.10;63.90;;;;;;4406648;28;657522;-72
2022/08/25 12:28:56;;;;;;;37.27;5.17;;;32.80;66.00;;;;;;4403875;28;657829;-72
2022/08/25 12:31:52;;;;;;;27.45;5.20;;;33.50;62.60;;;;;;4407602;28;657883;-72
2022/08/25 12:35:08;;;;;;;30.20;5.53;;;33.60;63.30;;;;;;4408617;28;657669;-72
2022/08/25 12:37:59;;;;;;;40.90;5.18;;;33.60;63.30;;;;;;4381467;28;657868;-72
2022/08/25 12:40:54;;;;;;;41.92;6.55;;;34.00;60.50;;;;;;4410510;28;658228;-72
2022/08/25 12:43:42;;;;;;;31.50;4.83;;;33.90;61.50;;;;;;4385858;28;658119;-71
2022/08/25 12:46:34;;;;;;;37.45;5.93;;;33.80;61.70;;;;;;4424004;28;657152;-72
2022/08/25 12:49:31;;;;;;;32.63;5.25;;;33.20;61.00;;;;;;4381152;28;658244;-72
2022/08/25 12:52:19;;;;;;;38.72;6.28;;;33.40;64.70;;;;;;4403808;28;658038;-72
2022/08/25 12:55:10;;;;;;;34.33;5.23;;;34.00;62.90;;;;;;4409596;28;657797;-72
2022/08/25 12:57:59;;;;;;;36.50;5.10;;;34.50;62.10;;;;;;4409193;28;658441;-72
2022/08/25 13:00:55;;;;;;;35.30;5.17;;;34.60;57.80;;;;;;4395142;28;657849;-72
2022/08/25 13:03:55;;;;;;;43.47;5.93;;;35.10;59.10;;;;;;4379486;28;658260;-72
2022/08/25 13:06:54;;;;;;;39.25;5.45;;;35.50;58.30;;;;;;4386943;28;657609;-72
2022/08/25 13:10:13;;;;;;;35.22;5.25;;;35.00;58.00;;;;;;4419623;28;657440;-72
2022/08/25 13:13:04;;;;;;;32.10;5.32;;;34.90;59.40;;;;;;4391747;28;657643;-72
2022/08/25 13:15:58;;;;;;;37.10;6.00;;;34.40;58.20;;;;;;4411135;28;657221;-72
2022/08/25 13:18:45;;;;;;;40.27;5.47;;;34.70;59.40;;;;;;4380122;28;657901;-73
2022/08/25 13:21:35;;;;;;;45.03;6.20;;;34.60;59.90;;;;;;4446644;28;657974;-72
2022/08/25 13:24:24;;;;;;;37.65;5.22;;;34.90;60.20;;;;;;4410914;28;658416;-72
2022/08/25 13:27:21;;;;;;;44.97;5.47;;;35.20;58.60;;;;;;4412417;28;657521;-73
2022/08/25 13:30:22;;;;;;;24.33;5.93;;;35.20;57.70;;;;;;4410321;28;658217;-72
2022/08/25 13:33:16;;;;;;;34.35;5.57;;;35.10;56.10;;;;;;4418410;28;658097;-72
2022/08/25 13:39:13;;;;;;;42.20;6.05;;;35.10;56.60;;;;;;4408432;28;657628;-72
2022/08/25 13:42:01;;;;;;;32.33;5.50;;;35.20;56.00;;;;;;4391078;28;657898;-72
2022/08/25 13:44:50;;;;;;;29.23;4.90;;;35.20;55.70;;;;;;4432878;28;657949;-72
2022/08/25 13:47:38;;;;;;;42.28;6.13;;;35.10;53.90;;;;;;4411120;28;658184;-72
2022/08/25 13:50:33;;;;;;;33.17;5.32;;;34.70;56.00;;;;;;4418244;28;657876;-72
2022/08/25 13:53:22;;;;;;;42.67;6.38;;;35.10;56.60;;;;;;4398272;28;657842;-72
2022/08/25 13:56:09;;;;;;;34.60;5.28;;;34.10;57.50;;;;;;4436194;28;657653;-73
2022/08/25 13:58:57;;;;;;;44.05;5.82;;;34.40;59.30;;;;;;4421381;28;657845;-72
2022/08/25 14:01:46;;;;;;;41.25;5.32;;;34.80;57.20;;;;;;4429018;28;657679;-72
2022/08/25 14:04:47;;;;;;;39.50;5.70;;;34.80;57.20;;;;;;4412808;28;657906;-72
2022/08/25 14:07:34;;;;;;;32.33;5.63;;;35.30;55.80;;;;;;4414953;28;658078;-73
2022/08/25 14:10:32;;;;;;;42.20;5.90;;;35.10;54.20;;;;;;4412923;28;658024;-72
2022/08/25 14:13:30;;;;;;;39.28;5.68;;;35.10;55.40;;;;;;4415738;28;657745;-73
2022/08/25 14:16:19;;;;;;;43.77;5.50;;;35.10;55.20;;;;;;4387186;28;657540;-72
2022/08/25 14:19:12;;;;;;;37.85;5.32;;;35.20;54.80;;;;;;4409073;28;658087;-72
2022/08/25 14:22:00;;;;;;;33.92;5.47;;;35.00;54.10;;;;;;4413218;28;657785;-73
2022/08/25 14:24:48;;;;;;;37.22;5.47;;;34.70;55.00;;;;;;4411282;28;658083;-72
2022/08/25 14:27:35;;;;;;;38.30;5.45;;;34.60;55.80;;;;;;4425692;28;658343;-72
2022/08/25 14:30:22;;;;;;;47.90;5.60;;;34.50;54.30;;;;;;4437975;28;657836;-72
2022/08/25 14:33:09;;;;;;;41.28;5.60;;;34.60;54.40;;;;;;4434586;28;657390;-72
2022/08/25 14:35:58;;;;;;;37.00;5.60;;;35.00;55.50;;;;;;4412376;28;657694;-72